Time;durP1;ratioP1;P1;durP2;ratioP2;P2;SDS_P1;SDS_P2;PMS_P1;PMS_P2;Temp;Humidity;BMP_temperature;BMP_pressure;BME280_temperature;BME280_humidity;BME280_pressure;Samples;Min_cycle;Max_cycle;Signal;HPM_P1;HPM_P2
2022/01/18 00:01:17;;;;;;;20.25;18.50;;;;;;;;;;6250237;23;20553;-82
2022/01/18 00:03:44;;;;;;;19.38;17.80;;;;;;;;;;6252100;23;20170;-83
2022/01/18 00:06:15;;;;;;;19.50;17.83;;;;;;;;;;6252288;23;20164;-82
2022/01/18 00:08:45;;;;;;;21.25;19.30;;;;;;;;;;6227677;23;20257;-83
2022/01/18 00:11:17;;;;;;;21.45;19.23;;;;;;;;;;6255335;23;20174;-83
2022/01/18 00:13:46;;;;;;;20.17;18.58;;;;;;;;;;6255931;23;20171;-83
2022/01/18 00:16:28;;;;;;;20.55;18.60;;;;;;;;;;6256254;23;20240;-83
2022/01/18 00:18:59;;;;;;;19.33;18.10;;;;;;;;;;6254322;23;20221;-81
2022/01/18 00:24:23;;;;;;;20.77;18.73;;;;;;;;;;5110279;27;1614436;-84
2022/01/18 00:26:50;;;;;;;22.07;19.93;;;;;;;;;;5137170;28;20192;-84
2022/01/18 00:29:21;;;;;;;19.65;18.35;;;;;;;;;;5133153;28;20438;-84
2022/01/18 00:32:00;;;;;;;20.77;19.05;;;;;;;;;;5132196;28;20196;-82
2022/01/18 00:34:30;;;;;;;20.42;18.60;;;;;;;;;;5131795;28;20696;-82
2022/01/18 00:37:11;;;;;;;21.13;19.15;;;;;;;;;;5137431;28;20186;-84
2022/01/18 00:39:41;;;;;;;21.25;19.13;;;;;;;;;;5138468;28;20257;-84
2022/01/18 00:42:10;;;;;;;19.73;18.23;;;;;;;;;;5138396;28;20205;-84
2022/01/18 00:44:38;;;;;;;19.75;18.00;;;;;;;;;;5138266;28;20431;-84
2022/01/18 00:47:07;;;;;;;19.60;18.10;;;;;;;;;;5137041;28;20200;-83
2022/01/18 00:49:40;;;;;;;20.50;18.70;;;;;;;;;;5138016;28;20426;-84
2022/01/18 00:52:08;;;;;;;19.98;18.58;;;;;;;;;;5138071;28;20201;-82
2022/01/18 00:54:44;;;;;;;20.20;18.50;;;;;;;;;;5138207;28;20187;-82
2022/01/18 00:57:14;;;;;;;20.87;19.00;;;;;;;;;;5138495;28;20661;-83
2022/01/18 00:59:44;;;;;;;19.80;18.20;;;;;;;;;;5119207;28;20524;-82
2022/01/18 01:02:11;;;;;;;19.85;18.10;;;;;;;;;;5137911;28;20522;-82
2022/01/18 01:04:47;;;;;;;19.97;18.27;;;;;;;;;;5137784;28;20200;-82
2022/01/18 01:07:15;;;;;;;20.30;18.48;;;;;;;;;;5137394;28;20440;-82
2022/01/18 01:09:46;;;;;;;20.15;18.60;;;;;;;;;;5138083;28;20196;-82
2022/01/18 01:12:14;;;;;;;22.15;19.80;;;;;;;;;;5120209;28;20200;-83
2022/01/18 01:14:43;;;;;;;21.75;19.65;;;;;;;;;;5133550;28;20553;-83
2022/01/18 01:17:26;;;;;;;20.05;18.33;;;;;;;;;;5134844;28;20610;-83
2022/01/18 01:42:13;;;;;;;19.92;18.25;;;;;;;;;;5124212;28;20188;-83
2022/01/18 01:44:44;;;;;;;19.80;17.90;;;;;;;;;;5125607;28;20223;-83
2022/01/18 01:47:12;;;;;;;20.90;18.65;;;;;;;;;;5125847;28;20201;-84
2022/01/18 01:49:42;;;;;;;20.73;19.10;;;;;;;;;;5124174;28;20226;-84
2022/01/18 01:52:11;;;;;;;21.33;19.30;;;;;;;;;;5123239;28;20193;-84
2022/01/18 01:54:42;;;;;;;21.05;18.95;;;;;;;;;;5122520;28;20196;-83
2022/01/18 01:57:14;;;;;;;20.25;18.60;;;;;;;;;;5127217;28;20206;-84
2022/01/18 01:59:41;;;;;;;20.65;18.80;;;;;;;;;;5125241;28;20190;-83
2022/01/18 02:02:10;;;;;;;20.35;18.70;;;;;;;;;;5105978;28;20208;-82
2022/01/18 02:04:37;;;;;;;19.80;18.20;;;;;;;;;;5120222;28;20220;-83
2022/01/18 02:07:05;;;;;;;20.83;19.20;;;;;;;;;;5119121;28;20207;-84
2022/01/18 02:09:33;;;;;;;21.87;20.07;;;;;;;;;;5117084;28;20650;-84
2022/01/18 02:12:01;;;;;;;19.63;18.50;;;;;;;;;;5117726;28;20762;-84
2022/01/18 02:14:31;;;;;;;20.13;18.70;;;;;;;;;;5100819;28;20185;-84
2022/01/18 02:22:36;;;;;;;21.80;20.35;;;;;;;;;;5021313;28;20254;-84
2022/01/18 02:25:04;;;;;;;22.02;20.15;;;;;;;;;;5043770;28;20287;-84
2022/01/18 02:27:31;;;;;;;23.92;19.90;;;;;;;;;;5040503;28;20224;-84
2022/01/18 02:29:59;;;;;;;23.05;20.73;;;;;;;;;;5040747;28;20316;-82
2022/01/18 02:32:26;;;;;;;22.08;20.10;;;;;;;;;;5034124;28;20207;-84
2022/01/18 02:34:53;;;;;;;21.52;20.15;;;;;;;;;;5033777;28;20630;-84
2022/01/18 02:37:21;;;;;;;21.25;19.95;;;;;;;;;;5034200;28;20204;-84
2022/01/18 02:39:50;;;;;;;23.98;21.88;;;;;;;;;;5034529;28;20625;-84
2022/01/18 02:42:23;;;;;;;22.93;21.20;;;;;;;;;;5034968;28;20199;-84
2022/01/18 02:44:51;;;;;;;23.55;21.45;;;;;;;;;;5034676;28;20489;-84
2022/01/18 02:47:20;;;;;;;23.17;21.23;;;;;;;;;;5035755;28;20291;-84
2022/01/18 02:49:47;;;;;;;22.95;21.00;;;;;;;;;;5034559;28;20250;-84
2022/01/18 02:52:15;;;;;;;23.05;20.98;;;;;;;;;;5034398;28;20200;-84
2022/01/18 02:54:43;;;;;;;21.97;20.53;;;;;;;;;;5035442;28;20278;-84
2022/01/18 02:57:14;;;;;;;21.87;20.37;;;;;;;;;;5034248;28;20448;-84
2022/01/18 02:59:47;;;;;;;22.73;20.90;;;;;;;;;;5077655;28;20467;-84
2022/01/18 03:05:04;;;;;;;23.88;21.67;;;;;;;;;;5093746;28;20523;-83
2022/01/18 03:07:32;;;;;;;23.77;22.02;;;;;;;;;;5097091;28;20194;-84
2022/01/18 03:09:59;;;;;;;22.98;21.48;;;;;;;;;;5096544;28;20195;-83
2022/01/18 03:12:29;;;;;;;23.10;21.10;;;;;;;;;;5095832;28;20209;-83
2022/01/18 03:14:56;;;;;;;22.80;20.85;;;;;;;;;;5095477;28;20193;-83
2022/01/18 03:17:23;;;;;;;23.85;21.85;;;;;;;;;;5096040;28;20189;-83
2022/01/18 03:19:51;;;;;;;24.02;22.20;;;;;;;;;;5097241;28;20194;-83
2022/01/18 03:22:18;;;;;;;22.80;20.88;;;;;;;;;;5096263;28;20190;-83
2022/01/18 03:24:49;;;;;;;24.15;21.58;;;;;;;;;;5117071;28;20617;-83
2022/01/18 03:30:05;;;;;;;23.23;21.70;;;;;;;;;;5121381;28;20192;-84
2022/01/18 03:32:32;;;;;;;24.42;22.33;;;;;;;;;;5117220;28;20197;-84
2022/01/18 03:35:00;;;;;;;24.15;21.98;;;;;;;;;;5115129;28;20694;-83
2022/01/18 03:37:27;;;;;;;26.70;23.63;;;;;;;;;;5114907;28;20658;-84
2022/01/18 03:39:55;;;;;;;25.23;23.05;;;;;;;;;;5115040;28;20590;-84
2022/01/18 03:42:37;;;;;;;25.67;23.55;;;;;;;;;;5114483;28;20257;-83
2022/01/18 03:45:08;;;;;;;26.17;23.45;;;;;;;;;;5114658;28;20308;-84
2022/01/18 03:47:36;;;;;;;23.27;21.65;;;;;;;;;;5114335;28;20582;-84
2022/01/18 03:50:04;;;;;;;24.98;23.02;;;;;;;;;;5114581;28;20194;-84
2022/01/18 03:52:32;;;;;;;25.42;23.40;;;;;;;;;;5114575;28;20192;-84
2022/01/18 03:54:59;;;;;;;26.33;23.60;;;;;;;;;;5114301;28;20203;-83
2022/01/18 03:57:26;;;;;;;25.42;23.00;;;;;;;;;;5114083;28;20242;-84
2022/01/18 03:59:54;;;;;;;25.35;23.23;;;;;;;;;;5114583;28;20196;-83
2022/01/18 04:02:23;;;;;;;25.50;23.10;;;;;;;;;;5096615;28;20189;-83
2022/01/18 04:04:51;;;;;;;26.58;24.40;;;;;;;;;;5114493;28;20482;-84
2022/01/18 04:07:18;;;;;;;27.58;24.70;;;;;;;;;;5114558;28;20190;-83
2022/01/18 04:09:46;;;;;;;25.95;23.38;;;;;;;;;;5117622;28;20193;-83
2022/01/18 04:12:13;;;;;;;26.70;24.15;;;;;;;;;;5099406;28;20201;-84
2022/01/18 04:14:41;;;;;;;27.52;24.63;;;;;;;;;;5119499;28;20193;-83
2022/01/18 04:17:16;;;;;;;27.13;24.98;;;;;;;;;;5114308;28;20188;-84
2022/01/18 04:28:06;;;;;;;27.47;24.97;;;;;;;;;;5113991;28;20241;-84
2022/01/18 04:30:33;;;;;;;26.50;24.20;;;;;;;;;;5114435;28;20528;-83
2022/01/18 04:33:01;;;;;;;27.58;25.25;;;;;;;;;;5114173;28;20589;-84
2022/01/18 04:35:30;;;;;;;28.50;25.52;;;;;;;;;;5114309;28;20203;-84
2022/01/18 04:37:57;;;;;;;28.13;25.50;;;;;;;;;;5113971;28;20694;-84
2022/01/18 04:40:28;;;;;;;27.93;24.90;;;;;;;;;;5114247;28;20440;-82
2022/01/18 04:43:10;;;;;;;27.63;25.00;;;;;;;;;;5113888;28;20448;-84
2022/01/18 04:48:28;;;;;;;27.58;25.10;;;;;;;;;;5114285;28;20280;-84
2022/01/18 04:50:57;;;;;;;28.70;25.87;;;;;;;;;;5113756;28;20188;-84
2022/01/18 04:53:26;;;;;;;29.70;26.70;;;;;;;;;;5115004;28;20786;-84
2022/01/18 04:55:56;;;;;;;28.00;24.75;;;;;;;;;;5115009;28;20198;-83
2022/01/18 04:58:23;;;;;;;28.35;25.42;;;;;;;;;;5118359;28;20230;-84
2022/01/18 05:00:51;;;;;;;28.42;25.83;;;;;;;;;;5115020;28;20242;-81
2022/01/18 05:03:18;;;;;;;27.90;25.70;;;;;;;;;;5114711;28;20211;-84
2022/01/18 05:05:48;;;;;;;30.30;27.40;;;;;;;;;;5114348;28;20192;-84
2022/01/18 05:08:18;;;;;;;26.52;24.27;;;;;;;;;;5114259;28;20232;-84
2022/01/18 05:10:51;;;;;;;26.73;24.48;;;;;;;;;;5117431;28;20197;-84
2022/01/18 05:13:35;;;;;;;28.60;26.38;;;;;;;;;;5117910;28;20204;-84
2022/01/18 05:16:19;;;;;;;29.67;26.80;;;;;;;;;;5118393;28;20205;-83
2022/01/18 05:19:04;;;;;;;30.08;27.20;;;;;;;;;;5118134;28;20200;-84
2022/01/18 05:21:34;;;;;;;28.73;25.95;;;;;;;;;;5118131;28;20189;-83
2022/01/18 05:24:04;;;;;;;30.35;26.33;;;;;;;;;;5117431;28;20234;-84
2022/01/18 05:26:31;;;;;;;30.08;26.90;;;;;;;;;;5118277;28;20200;-83
2022/01/18 05:28:58;;;;;;;29.00;26.63;;;;;;;;;;5117111;28;20198;-84
2022/01/18 05:31:26;;;;;;;34.88;28.10;;;;;;;;;;5117583;28;20204;-84
2022/01/18 05:33:53;;;;;;;35.40;27.07;;;;;;;;;;5117342;28;20212;-84
2022/01/18 05:36:21;;;;;;;29.48;26.85;;;;;;;;;;5117856;28;20427;-84
2022/01/18 05:38:48;;;;;;;29.10;26.65;;;;;;;;;;5117680;28;20200;-83
2022/01/18 05:41:17;;;;;;;30.98;28.23;;;;;;;;;;5117320;28;20643;-83
2022/01/18 05:43:45;;;;;;;30.93;28.00;;;;;;;;;;5117972;28;20550;-83
2022/01/18 05:46:12;;;;;;;35.88;26.80;;;;;;;;;;5119316;28;20439;-83
2022/01/18 05:48:40;;;;;;;32.13;28.98;;;;;;;;;;5119038;28;20193;-84
2022/01/18 05:51:07;;;;;;;38.97;28.80;;;;;;;;;;5117785;28;20188;-84
2022/01/18 05:53:35;;;;;;;31.27;28.05;;;;;;;;;;5120473;28;20589;-84
2022/01/18 05:56:03;;;;;;;33.38;30.08;;;;;;;;;;5116793;28;20231;-84
2022/01/18 05:58:32;;;;;;;33.70;30.42;;;;;;;;;;5117123;28;20208;-84
2022/01/18 06:00:59;;;;;;;32.60;29.35;;;;;;;;;;5123518;28;20188;-83
2022/01/18 06:03:28;;;;;;;33.22;30.13;;;;;;;;;;5117491;28;20189;-83
2022/01/18 06:08:41;;;;;;;32.90;28.95;;;;;;;;;;5116878;28;20652;-84
2022/01/18 06:11:09;;;;;;;32.35;29.33;;;;;;;;;;5118037;28;20192;-84
2022/01/18 06:13:38;;;;;;;34.53;31.15;;;;;;;;;;5117166;28;20577;-83
2022/01/18 06:16:06;;;;;;;42.92;30.83;;;;;;;;;;5117441;28;20198;-83
2022/01/18 06:18:33;;;;;;;38.88;30.42;;;;;;;;;;5117799;28;20274;-84
2022/01/18 06:21:01;;;;;;;37.08;31.83;;;;;;;;;;5119043;28;20205;-83
2022/01/18 06:23:29;;;;;;;38.00;31.80;;;;;;;;;;5119680;28;20236;-83
2022/01/18 06:25:58;;;;;;;42.13;31.05;;;;;;;;;;5120233;28;20493;-83
2022/01/18 06:28:26;;;;;;;37.72;33.75;;;;;;;;;;5100184;28;20189;-84
2022/01/18 06:30:55;;;;;;;44.05;33.38;;;;;;;;;;5116948;28;20197;-84
2022/01/18 06:33:26;;;;;;;37.97;31.93;;;;;;;;;;5119178;28;20221;-82
2022/01/18 06:35:53;;;;;;;39.83;30.80;;;;;;;;;;5116336;28;20436;-84
2022/01/18 06:38:20;;;;;;;50.70;32.83;;;;;;;;;;5115305;28;20246;-83
2022/01/18 06:40:49;;;;;;;46.92;32.13;;;;;;;;;;5115504;28;20851;-84
2022/01/18 06:43:17;;;;;;;33.70;30.27;;;;;;;;;;5115346;28;20194;-84
2022/01/18 06:45:44;;;;;;;35.10;31.48;;;;;;;;;;5115066;28;20223;-84
2022/01/18 06:48:13;;;;;;;33.88;30.38;;;;;;;;;;5115912;28;20669;-83
2022/01/18 06:50:40;;;;;;;35.22;30.63;;;;;;;;;;5116074;28;20198;-84
2022/01/18 06:53:08;;;;;;;42.38;32.78;;;;;;;;;;5115234;28;20189;-84
2022/01/18 06:55:35;;;;;;;39.63;33.33;;;;;;;;;;5115228;28;20201;-84
2022/01/18 06:58:02;;;;;;;35.22;31.10;;;;;;;;;;5114951;28;20449;-84
2022/01/18 07:00:30;;;;;;;39.88;31.73;;;;;;;;;;5114890;28;20194;-83
2022/01/18 07:02:57;;;;;;;35.80;30.90;;;;;;;;;;5114945;28;20189;-83
2022/01/18 07:05:26;;;;;;;41.53;32.28;;;;;;;;;;5114753;28;20212;-84
2022/01/18 07:07:53;;;;;;;35.90;31.55;;;;;;;;;;5115368;28;20657;-84
2022/01/18 07:10:20;;;;;;;48.33;31.65;;;;;;;;;;5115288;28;20203;-84
2022/01/18 07:12:48;;;;;;;40.70;31.80;;;;;;;;;;5114782;28;20193;-84
2022/01/18 07:15:15;;;;;;;36.88;31.63;;;;;;;;;;5115034;28;20200;-83
2022/01/18 07:17:42;;;;;;;33.92;30.38;;;;;;;;;;5115037;28;20600;-84
2022/01/18 07:20:10;;;;;;;35.17;30.30;;;;;;;;;;5096747;28;20204;-84
2022/01/18 07:22:42;;;;;;;36.58;31.58;;;;;;;;;;5114665;28;20495;-84
2022/01/18 07:25:11;;;;;;;47.53;30.55;;;;;;;;;;5114460;28;20258;-84
2022/01/18 07:27:39;;;;;;;35.03;31.05;;;;;;;;;;5096056;28;20244;-84
2022/01/18 07:30:07;;;;;;;34.28;30.60;;;;;;;;;;5114628;28;20182;-85
2022/01/18 07:32:35;;;;;;;45.17;31.48;;;;;;;;;;5114847;28;20221;-85
2022/01/18 07:35:03;;;;;;;46.33;29.80;;;;;;;;;;5115691;28;20197;-85
2022/01/18 07:37:30;;;;;;;38.77;30.80;;;;;;;;;;5115318;28;20728;-86
2022/01/18 07:39:59;;;;;;;37.15;31.15;;;;;;;;;;5115148;28;20438;-89
2022/01/18 07:42:26;;;;;;;42.17;32.40;;;;;;;;;;5114492;28;20284;-83
2022/01/18 07:44:53;;;;;;;40.67;32.10;;;;;;;;;;5113571;28;20625;-81
2022/01/18 07:47:21;;;;;;;34.20;30.40;;;;;;;;;;5113363;28;20436;-81
2022/01/18 07:49:48;;;;;;;41.47;31.63;;;;;;;;;;5113696;28;20603;-81
2022/01/18 07:52:16;;;;;;;40.17;31.90;;;;;;;;;;5113558;28;20186;-81
2022/01/18 07:54:43;;;;;;;45.83;31.25;;;;;;;;;;5113591;28;20442;-82
2022/01/18 07:57:14;;;;;;;65.13;33.10;;;;;;;;;;5113362;28;20201;-81
2022/01/18 07:59:41;;;;;;;47.23;31.00;;;;;;;;;;5113097;28;20451;-80
2022/01/18 08:02:08;;;;;;;50.05;31.30;;;;;;;;;;5113264;28;20457;-81
2022/01/18 08:04:36;;;;;;;37.10;31.48;;;;;;;;;;5113467;28;20219;-81
2022/01/18 08:07:03;;;;;;;37.80;31.17;;;;;;;;;;5113463;28;20188;-81
2022/01/18 08:09:31;;;;;;;48.55;32.17;;;;;;;;;;5095541;28;20189;-81
2022/01/18 08:11:58;;;;;;;32.03;28.07;;;;;;;;;;5113415;28;20193;-81
2022/01/18 08:14:29;;;;;;;37.35;30.65;;;;;;;;;;5113353;28;20948;-81
2022/01/18 08:17:04;;;;;;;53.92;31.05;;;;;;;;;;5113303;28;20185;-81
2022/01/18 08:19:33;;;;;;;39.03;31.02;;;;;;;;;;5113392;28;20196;-82
2022/01/18 08:22:00;;;;;;;39.88;30.48;;;;;;;;;;5113203;28;20220;-82
2022/01/18 08:24:28;;;;;;;37.00;30.42;;;;;;;;;;5112838;28;20714;-82
2022/01/18 08:26:55;;;;;;;46.37;31.83;;;;;;;;;;5113042;28;20644;-82
2022/01/18 08:29:23;;;;;;;47.65;30.67;;;;;;;;;;5113233;28;20822;-83
2022/01/18 08:31:52;;;;;;;50.97;32.97;;;;;;;;;;5113338;28;20207;-81
2022/01/18 08:34:21;;;;;;;42.83;31.17;;;;;;;;;;5113289;28;20190;-81
2022/01/18 08:36:48;;;;;;;35.67;29.38;;;;;;;;;;5112808;28;20193;-83
2022/01/18 08:39:15;;;;;;;55.67;31.55;;;;;;;;;;5113165;28;20198;-82
2022/01/18 08:41:43;;;;;;;40.15;29.83;;;;;;;;;;5113065;28;20189;-86
2022/01/18 08:44:10;;;;;;;41.58;30.52;;;;;;;;;;5113401;28;20242;-83
2022/01/18 08:46:38;;;;;;;40.30;30.55;;;;;;;;;;5116923;28;20221;-82
2022/01/18 08:49:08;;;;;;;40.58;33.47;;;;;;;;;;5118407;28;20561;-86
2022/01/18 08:51:35;;;;;;;52.38;30.30;;;;;;;;;;5118035;28;20651;-87
2022/01/18 08:54:03;;;;;;;40.40;31.83;;;;;;;;;;5117916;28;20190;-85
2022/01/18 08:56:30;;;;;;;45.03;32.60;;;;;;;;;;5109313;28;20449;-91
2022/01/18 08:58:58;;;;;;;43.97;32.05;;;;;;;;;;5097766;28;20186;-91
2022/01/18 09:01:25;;;;;;;39.47;32.22;;;;;;;;;;5098357;28;20231;-92
2022/01/18 09:03:53;;;;;;;35.55;28.35;;;;;;;;;;5097373;28;20647;-92
2022/01/18 09:06:24;;;;;;;43.90;29.17;;;;;;;;;;5101023;28;20240;-96
2022/01/18 09:08:56;;;;;;;40.30;29.95;;;;;;;;;;5105746;28;20212;-96
2022/01/18 09:11:26;;;;;;;47.33;29.75;;;;;;;;;;5097748;28;20641;-85
2022/01/18 09:13:54;;;;;;;39.00;29.25;;;;;;;;;;5096936;28;20541;-85
2022/01/18 09:16:21;;;;;;;42.17;31.30;;;;;;;;;;5096143;28;20190;-85
2022/01/18 09:18:50;;;;;;;47.30;32.87;;;;;;;;;;5097142;28;20804;-86
2022/01/18 09:21:18;;;;;;;50.75;31.70;;;;;;;;;;5096780;28;20420;-85
2022/01/18 09:23:47;;;;;;;50.70;31.70;;;;;;;;;;5096249;28;20244;-84
2022/01/18 09:26:14;;;;;;;42.97;31.60;;;;;;;;;;5096413;28;20821;-85
2022/01/18 09:28:42;;;;;;;39.60;31.77;;;;;;;;;;5096492;28;20811;-84
2022/01/18 09:31:10;;;;;;;50.08;33.03;;;;;;;;;;5096359;28;20225;-83
2022/01/18 09:33:37;;;;;;;37.83;30.33;;;;;;;;;;5095930;28;20211;-84
2022/01/18 09:36:04;;;;;;;41.40;31.30;;;;;;;;;;5096284;28;20197;-84
2022/01/18 09:38:32;;;;;;;40.10;31.33;;;;;;;;;;5096115;28;20194;-84
2022/01/18 09:41:09;;;;;;;36.53;29.60;;;;;;;;;;5096143;28;20226;-84
2022/01/18 09:43:37;;;;;;;50.53;32.13;;;;;;;;;;5096358;28;20182;-85
2022/01/18 09:46:05;;;;;;;35.20;29.90;;;;;;;;;;5096026;28;20380;-84
2022/01/18 09:48:32;;;;;;;39.47;29.50;;;;;;;;;;5096185;28;20183;-84
2022/01/18 09:51:00;;;;;;;38.57;30.10;;;;;;;;;;5096063;28;20534;-84
2022/01/18 09:53:28;;;;;;;50.90;32.10;;;;;;;;;;5095902;28;20495;-84
2022/01/18 09:55:56;;;;;;;46.92;30.90;;;;;;;;;;5095115;28;20206;-84
2022/01/18 09:58:25;;;;;;;37.07;29.90;;;;;;;;;;5077591;28;20272;-84
2022/01/18 10:00:52;;;;;;;40.10;29.67;;;;;;;;;;5095944;28;20435;-84
2022/01/18 10:03:23;;;;;;;52.03;30.15;;;;;;;;;;5095565;28;20440;-84
2022/01/18 10:05:51;;;;;;;44.13;29.83;;;;;;;;;;5095687;28;20228;-83
2022/01/18 10:08:20;;;;;;;37.83;28.53;;;;;;;;;;5095660;28;20212;-84
2022/01/18 10:10:48;;;;;;;37.35;27.98;;;;;;;;;;5095604;28;20424;-85
2022/01/18 10:13:18;;;;;;;32.47;28.98;;;;;;;;;;5095385;28;20193;-84
2022/01/18 10:16:02;;;;;;;38.93;30.50;;;;;;;;;;5095256;28;20198;-84
2022/01/18 10:18:37;;;;;;;44.20;30.63;;;;;;;;;;5095350;28;20426;-86
2022/01/18 10:21:06;;;;;;;38.27;29.90;;;;;;;;;;5095582;28;20432;-85
2022/01/18 10:23:35;;;;;;;49.53;29.73;;;;;;;;;;5095129;28;20980;-85
2022/01/18 10:26:16;;;;;;;42.65;28.95;;;;;;;;;;5095544;28;20224;-84
2022/01/18 10:28:43;;;;;;;32.63;26.90;;;;;;;;;;5095238;28;20199;-84
2022/01/18 10:31:24;;;;;;;32.53;27.90;;;;;;;;;;5095219;28;20421;-84
2022/01/18 10:34:11;;;;;;;36.85;28.00;;;;;;;;;;5095043;28;20217;-83
2022/01/18 10:36:52;;;;;;;31.73;27.88;;;;;;;;;;5095073;28;20247;-84
2022/01/18 10:39:21;;;;;;;32.85;28.00;;;;;;;;;;5095090;28;20216;-84
2022/01/18 10:41:49;;;;;;;37.13;29.53;;;;;;;;;;5094828;28;20622;-84
2022/01/18 10:44:17;;;;;;;35.40;26.93;;;;;;;;;;5100036;28;20431;-83
2022/01/18 10:46:47;;;;;;;30.63;26.63;;;;;;;;;;5101425;28;20551;-84
2022/01/18 10:49:26;;;;;;;31.60;27.40;;;;;;;;;;5104717;28;20410;-82
2022/01/18 10:51:57;;;;;;;35.60;27.40;;;;;;;;;;5093656;28;20426;-84
2022/01/18 10:54:34;;;;;;;31.17;26.20;;;;;;;;;;5083842;28;20539;-83
2022/01/18 10:57:03;;;;;;;30.90;27.90;;;;;;;;;;5099333;28;20444;-83
2022/01/18 10:59:31;;;;;;;43.20;38.70;;;;;;;;;;5094466;28;20486;-83
2022/01/18 11:02:10;;;;;;;41.47;35.00;;;;;;;;;;5094387;28;20820;-82
2022/01/18 11:04:39;;;;;;;34.57;30.67;;;;;;;;;;5094224;28;20441;-83
2022/01/18 11:07:07;;;;;;;32.63;26.10;;;;;;;;;;5093725;28;20560;-82
2022/01/18 11:09:35;;;;;;;30.87;25.27;;;;;;;;;;5094057;28;20445;-83
2022/01/18 11:12:02;;;;;;;30.10;26.90;;;;;;;;;;5094157;28;20498;-83
2022/01/18 11:14:31;;;;;;;27.33;24.43;;;;;;;;;;5094369;28;20448;-84
2022/01/18 11:16:59;;;;;;;32.83;27.83;;;;;;;;;;5094089;28;20424;-84
2022/01/18 11:19:35;;;;;;;34.05;26.00;;;;;;;;;;5094250;28;20423;-84
2022/01/18 11:22:06;;;;;;;28.73;25.77;;;;;;;;;;5093983;28;20644;-85
2022/01/18 11:24:34;;;;;;;29.73;24.93;;;;;;;;;;5093555;28;20494;-84
2022/01/18 11:27:03;;;;;;;27.50;24.67;;;;;;;;;;5094164;28;20484;-84
2022/01/18 11:29:32;;;;;;;28.90;25.80;;;;;;;;;;5093921;28;20986;-85
2022/01/18 11:32:00;;;;;;;27.17;24.37;;;;;;;;;;5094034;28;20871;-85
2022/01/18 11:34:35;;;;;;;31.90;25.43;;;;;;;;;;5093999;28;20433;-85
2022/01/18 11:37:10;;;;;;;32.37;24.87;;;;;;;;;;5094270;28;20445;-85
2022/01/18 11:39:38;;;;;;;27.10;23.93;;;;;;;;;;5094333;28;20415;-85
2022/01/18 11:42:09;;;;;;;27.43;24.67;;;;;;;;;;5093788;28;20427;-84
2022/01/18 11:44:36;;;;;;;27.80;24.35;;;;;;;;;;5094230;28;20481;-84
2022/01/18 11:47:05;;;;;;;27.70;24.80;;;;;;;;;;5093626;28;20211;-85
2022/01/18 11:49:33;;;;;;;29.80;23.90;;;;;;;;;;5093792;28;20904;-85
2022/01/18 11:52:03;;;;;;;25.73;23.17;;;;;;;;;;5093758;28;20479;-85
2022/01/18 11:54:39;;;;;;;26.10;23.50;;;;;;;;;;5093673;28;20434;-84
2022/01/18 11:57:35;;;;;;;27.87;24.70;;;;;;;;;;5075543;28;20530;-84
2022/01/18 12:00:24;;;;;;;26.50;24.00;;;;;;;;;;5093612;28;20448;-85
2022/01/18 12:02:55;;;;;;;26.53;24.00;;;;;;;;;;5093420;28;20822;-84
2022/01/18 12:05:25;;;;;;;25.93;23.60;;;;;;;;;;5093686;28;20957;-84
2022/01/18 12:07:57;;;;;;;25.73;23.00;;;;;;;;;;5093592;28;20467;-84
2022/01/18 12:10:46;;;;;;;26.40;23.50;;;;;;;;;;5093276;28;20985;-86
2022/01/18 12:13:24;;;;;;;27.13;24.17;;;;;;;;;;5093305;28;20910;-84
2022/01/18 12:15:52;;;;;;;26.50;24.30;;;;;;;;;;5093105;28;20443;-84
2022/01/18 12:18:20;;;;;;;28.57;24.20;;;;;;;;;;5075210;28;20426;-84
2022/01/18 12:20:49;;;;;;;26.57;24.13;;;;;;;;;;5093250;28;20410;-83
2022/01/18 12:23:17;;;;;;;26.13;23.93;;;;;;;;;;5092994;28;20466;-84
2022/01/18 12:25:58;;;;;;;27.00;24.30;;;;;;;;;;5093033;28;20889;-84
2022/01/18 12:28:57;;;;;;;34.60;25.60;;;;;;;;;;5074883;28;20522;-84
2022/01/18 12:34:35;;;;;;;24.93;22.50;;;;;;;;;;5082225;28;20439;-84
2022/01/18 12:37:23;;;;;;;25.87;23.23;;;;;;;;;;5093253;28;20445;-85
2022/01/18 12:40:05;;;;;;;28.30;24.03;;;;;;;;;;5093104;28;20532;-84
2022/01/18 12:45:22;;;;;;;25.30;23.20;;;;;;;;;;5093045;28;20407;-84
2022/01/18 12:47:51;;;;;;;27.00;24.57;;;;;;;;;;5092819;28;20545;-84
2022/01/18 12:50:21;;;;;;;25.80;22.17;;;;;;;;;;5074832;28;20419;-85
2022/01/18 12:52:49;;;;;;;26.27;23.90;;;;;;;;;;5093268;28;20419;-84
2022/01/18 12:55:26;;;;;;;25.30;22.97;;;;;;;;;;5093058;28;20431;-84
2022/01/18 12:58:02;;;;;;;25.00;22.70;;;;;;;;;;5092774;28;20434;-84
2022/01/18 13:00:30;;;;;;;26.57;24.27;;;;;;;;;;5097257;28;20402;-84
2022/01/18 13:03:01;;;;;;;27.13;22.57;;;;;;;;;;5101499;28;20414;-84
2022/01/18 13:05:38;;;;;;;24.03;22.00;;;;;;;;;;5097245;28;20444;-85
2022/01/18 13:08:06;;;;;;;25.43;22.80;;;;;;;;;;5089746;28;20519;-83
2022/01/18 13:10:40;;;;;;;27.20;24.83;;;;;;;;;;5092916;28;20431;-85
2022/01/18 13:13:11;;;;;;;29.07;26.10;;;;;;;;;;5092665;28;20463;-84
2022/01/18 13:15:51;;;;;;;33.33;30.10;;;;;;;;;;5092596;28;20953;-84
2022/01/18 13:23:57;;;;;;;26.10;24.03;;;;;;;;;;5092210;28;20499;-84
2022/01/18 13:26:32;;;;;;;25.00;22.90;;;;;;;;;;5092391;28;20552;-84
2022/01/18 13:29:12;;;;;;;31.67;28.87;;;;;;;;;;5092730;28;20514;-83
2022/01/18 13:31:43;;;;;;;24.83;22.77;;;;;;;;;;5095550;28;20514;-84
2022/01/18 13:34:13;;;;;;;24.33;21.80;;;;;;;;;;5096178;28;20526;-85
2022/01/18 13:36:51;;;;;;;24.73;22.63;;;;;;;;;;5096407;28;20434;-86
2022/01/18 13:39:22;;;;;;;25.03;22.60;;;;;;;;;;5096382;28;20913;-85
2022/01/18 13:41:50;;;;;;;24.07;22.00;;;;;;;;;;5096300;28;21072;-86
2022/01/18 13:44:19;;;;;;;28.60;24.70;;;;;;;;;;5096415;28;20431;-86
2022/01/18 13:46:46;;;;;;;27.37;24.60;;;;;;;;;;5096376;28;20462;-86
2022/01/18 13:49:14;;;;;;;28.80;24.57;;;;;;;;;;5096363;28;20418;-86
2022/01/18 13:51:41;;;;;;;25.97;23.33;;;;;;;;;;5095970;28;20927;-85
2022/01/18 13:54:10;;;;;;;23.90;21.67;;;;;;;;;;5095972;28;20428;-85
2022/01/18 13:56:48;;;;;;;25.17;23.00;;;;;;;;;;5096376;28;20435;-86
2022/01/18 13:59:16;;;;;;;26.20;23.87;;;;;;;;;;5096082;28;20441;-85
2022/01/18 14:01:45;;;;;;;25.90;23.60;;;;;;;;;;5095380;28;20927;-85
2022/01/18 14:04:16;;;;;;;26.63;24.03;;;;;;;;;;5095656;28;20407;-85
2022/01/18 14:06:44;;;;;;;25.50;23.00;;;;;;;;;;5095767;28;20482;-86
2022/01/18 14:09:12;;;;;;;30.77;23.63;;;;;;;;;;5096238;28;20441;-85
2022/01/18 14:11:42;;;;;;;25.53;23.00;;;;;;;;;;5095743;28;20451;-85
2022/01/18 14:14:16;;;;;;;29.70;24.13;;;;;;;;;;5095791;28;20951;-86
2022/01/18 14:16:48;;;;;;;26.57;23.73;;;;;;;;;;5095651;28;20451;-85
2022/01/18 14:19:25;;;;;;;25.20;22.50;;;;;;;;;;5095828;28;20839;-85
2022/01/18 14:21:53;;;;;;;28.87;22.37;;;;;;;;;;5095310;28;20418;-87
2022/01/18 14:24:22;;;;;;;25.73;23.30;;;;;;;;;;5095698;28;20977;-86
2022/01/18 14:27:02;;;;;;;26.97;23.53;;;;;;;;;;5095857;28;20865;-88
2022/01/18 14:29:31;;;;;;;26.50;23.93;;;;;;;;;;5096126;28;20960;-88
2022/01/18 14:32:02;;;;;;;27.20;24.40;;;;;;;;;;5095632;28;20408;-85
2022/01/18 14:34:30;;;;;;;25.10;22.73;;;;;;;;;;5095504;28;20404;-85
2022/01/18 14:36:58;;;;;;;30.05;24.20;;;;;;;;;;5095197;28;21079;-85
2022/01/18 14:39:25;;;;;;;26.80;23.10;;;;;;;;;;5095896;28;20198;-87
2022/01/18 14:42:02;;;;;;;24.90;22.70;;;;;;;;;;5095856;28;20488;-87
2022/01/18 14:44:59;;;;;;;25.47;23.07;;;;;;;;;;5095102;28;20446;-86
2022/01/18 14:47:28;;;;;;;26.13;23.67;;;;;;;;;;5095357;28;20454;-87
2022/01/18 14:49:56;;;;;;;26.43;23.60;;;;;;;;;;5108558;28;20422;-85
2022/01/18 14:52:25;;;;;;;24.50;22.25;;;;;;;;;;5115383;28;20406;-85
2022/01/18 14:54:52;;;;;;;25.17;22.90;;;;;;;;;;5115494;28;20578;-85
2022/01/18 14:57:20;;;;;;;24.57;22.43;;;;;;;;;;5115124;28;20426;-85
2022/01/18 14:59:47;;;;;;;24.80;22.60;;;;;;;;;;5115201;28;20435;-85
2022/01/18 15:02:15;;;;;;;24.30;21.80;;;;;;;;;;5115173;28;20936;-87
2022/01/18 15:04:43;;;;;;;25.07;22.87;;;;;;;;;;5114916;28;20448;-85
2022/01/18 15:07:11;;;;;;;25.77;23.53;;;;;;;;;;5114691;28;20511;-84
2022/01/18 15:09:39;;;;;;;23.97;21.67;;;;;;;;;;5114448;28;20491;-83
2022/01/18 15:12:07;;;;;;;24.70;22.33;;;;;;;;;;5109797;28;20430;-84
2022/01/18 15:14:42;;;;;;;28.90;21.57;;;;;;;;;;5107298;28;20511;-83
2022/01/18 15:17:09;;;;;;;23.90;21.90;;;;;;;;;;5096933;28;20953;-84
2022/01/18 15:19:37;;;;;;;24.43;21.93;;;;;;;;;;5093948;28;20905;-83
2022/01/18 15:22:06;;;;;;;24.03;21.63;;;;;;;;;;5094126;28;20525;-84
2022/01/18 15:24:34;;;;;;;24.33;22.00;;;;;;;;;;5094028;28;20506;-84
2022/01/18 15:27:02;;;;;;;23.67;21.20;;;;;;;;;;5094079;28;20480;-84
2022/01/18 15:29:29;;;;;;;23.50;21.47;;;;;;;;;;5093627;28;20489;-84
2022/01/18 15:31:56;;;;;;;23.00;20.87;;;;;;;;;;5094147;28;20516;-84
2022/01/18 15:34:24;;;;;;;24.73;22.03;;;;;;;;;;5103852;28;20419;-84